Time;durP1;ratioP1;P1;durP2;ratioP2;P2;SDS_P1;SDS_P2;PMS_P1;PMS_P2;Temp;Humidity;BMP_temperature;BMP_pressure;BME280_temperature;BME280_humidity;BME280_pressure;Samples;Min_cycle;Max_cycle;Signal;HPM_P1;HPM_P2
2023/09/08 00:00:48;;;;;;;12.65;7.68;;;;;;;17.10;67.62;98179.94;10499959;27;20666;-53
2023/09/08 00:05:47;;;;;;;12.55;7.00;;;;;;;17.03;67.69;98175.72;10498161;27;20534;-54
2023/09/08 00:10:46;;;;;;;10.57;6.95;;;;;;;17.01;67.50;98172.25;10520764;27;20043;-54
2023/09/08 00:15:45;;;;;;;10.98;7.10;;;;;;;16.99;67.27;98168.78;10497082;27;20023;-53
2023/09/08 00:20:44;;;;;;;;;;;;;;;16.84;69.88;98191.78;10495691;27;20774;-53
2023/09/08 00:25:42;;;;;;;16.60;11.37;;;;;;;16.74;71.49;98190.19;10496562;27;20314;-53
2023/09/08 00:30:41;;;;;;;;;;;;;;;16.45;73.03;98194.22;10494510;27;20031;-54
2023/09/08 00:35:44;;;;;;;14.97;9.40;;;;;;;16.37;73.24;98185.63;10493449;27;19968;-54
2023/09/08 00:40:43;;;;;;;21.60;10.63;;;;;;;16.22;72.72;98175.41;10494907;27;20051;-54
2023/09/08 00:45:42;;;;;;;;;;;;;;;16.37;72.61;98206.59;10496088;27;20437;-54
2023/09/08 00:50:41;;;;;;;14.80;9.63;;;;;;;16.37;72.72;98197.84;10509159;27;20386;-53
2023/09/08 00:55:41;;;;;;;13.73;9.10;;;;;;;16.36;72.71;98211.84;10517936;27;20062;-53
2023/09/08 01:00:40;;;;;;;14.20;9.63;;;;;;;16.19;72.79;98172.84;10535767;27;20512;-54
2023/09/08 01:05:39;;;;;;;;;;;;;;;16.40;72.62;98201.28;10508586;27;20474;-54
2023/09/08 01:10:39;;;;;;;11.60;8.60;;;;;;;16.39;72.41;98188.22;10494898;27;19954;-54
2023/09/08 01:15:38;;;;;;;12.18;8.18;;;;;;;16.27;72.67;98189.28;10494407;27;20168;-53
2023/09/08 01:20:39;;;;;;;;;;;;;;;16.25;72.45;98191.91;10508841;27;20023;-54
2023/09/08 01:25:57;;;;;;;16.45;9.18;;;;;;;16.21;72.81;98186.78;10508474;27;19962;-54
2023/09/08 01:30:56;;;;;;;16.75;9.73;;;;;;;16.14;73.26;98182.53;10492155;28;20106;-54
2023/09/08 01:35:55;;;;;;;13.50;9.48;;;;;;;16.11;74.58;98193.06;10495528;27;20047;-53
2023/09/08 01:40:54;;;;;;;13.38;9.55;;;;;;;15.88;75.22;98192.53;10492183;28;20443;-53
2023/09/08 01:45:53;;;;;;;;;;;;;;;15.80;75.02;98181.31;10495638;27;20462;-53
2023/09/08 01:50:52;;;;;;;15.88;10.18;;;;;;;15.78;75.72;98180.44;10491348;28;19950;-53
2023/09/08 01:55:50;;;;;;;;;;;;;;;15.72;75.80;98192.75;10494822;27;20053;-54
2023/09/08 02:00:51;;;;;;;13.30;10.20;;;;;;;15.65;76.04;98187.59;10492128;27;20004;-53
2023/09/08 02:05:50;;;;;;;17.90;11.73;;;;;;;15.58;76.82;98208.66;10494457;28;20062;-53
2023/09/08 02:10:48;;;;;;;;;;;;;;;15.48;76.90;98204.41;10493732;28;20134;-54
2023/09/08 02:15:47;;;;;;;13.80;10.85;;;;;;;15.41;77.38;98199.28;10495994;28;20413;-54
2023/09/08 02:20:47;;;;;;;15.05;10.30;;;;;;;15.23;77.46;98174.22;10495371;28;20128;-53
2023/09/08 02:25:46;;;;;;;;;;;;;;;15.31;77.90;98200.28;10499271;28;20118;-53
2023/09/08 02:30:45;;;;;;;26.15;12.00;;;;;;;15.30;77.84;98197.69;10494912;28;19935;-54
2023/09/08 02:35:44;;;;;;;;;;;;;;;15.28;78.11;98194.22;10509788;28;20066;-53
2023/09/08 02:40:43;;;;;;;15.25;10.10;;;;;;;15.28;78.02;98195.09;10493402;28;20015;-53
2023/09/08 02:45:42;;;;;;;;;;;;;;;15.18;78.87;98204.81;10494477;28;20074;-53
2023/09/08 02:50:40;;;;;;;16.45;11.20;;;;;;;15.11;78.73;98190.09;10492260;28;19919;-54
2023/09/08 02:55:39;;;;;;;;;;;;;;;15.16;79.10;98203.94;10499414;28;20532;-53
2023/09/08 03:00:38;;;;;;;19.30;10.52;;;;;;;15.12;78.72;98197.03;10500737;28;19912;-53
2023/09/08 03:05:37;;;;;;;;;;;;;;;15.15;79.39;98209.19;10500143;27;20104;-53
2023/09/08 03:10:36;;;;;;;20.33;10.93;;;;;;;15.00;80.22;98186.72;10498121;27;20367;-54
2023/09/08 03:15:35;;;;;;;;;;;;;;;14.90;80.92;98206.03;10501406;27;20059;-54
2023/09/08 03:20:34;;;;;;;20.10;11.13;;;;;;;14.86;80.59;98202.56;10498049;28;20541;-53
2023/09/08 03:25:33;;;;;;;;;;;;;;;14.86;80.78;98212.16;10499395;27;20058;-53
2023/09/08 03:30:31;;;;;;;18.50;11.40;;;;;;;14.82;81.03;98206.94;10497855;28;19943;-53
2023/09/08 03:35:30;;;;;;;16.08;11.32;;;;;;;14.75;81.55;98201.81;10526788;27;20024;-53
2023/09/08 03:40:29;;;;;;;;;;;;;;;14.64;82.00;98204.50;10495301;27;20119;-53
2023/09/08 03:45:28;;;;;;;15.50;10.90;;;;;;;14.45;82.11;98182.91;10499436;27;19999;-53
2023/09/08 03:50:27;;;;;;;16.58;10.57;;;;;;;13.87;83.21;98152.97;10496847;28;20119;-53
2023/09/08 03:55:26;;;;;;;13.32;9.70;;;;;;;14.16;83.07;98210.16;10497510;27;20038;-53
2023/09/08 04:00:25;;;;;;;14.75;10.95;;;;;;;14.15;82.85;98225.84;10496669;28;20061;-53
2023/09/08 04:05:24;;;;;;;;;;;;;;;14.17;82.46;98224.06;10498408;27;20031;-53
2023/09/08 04:10:23;;;;;;;15.45;11.00;;;;;;;13.35;82.41;98082.91;10518360;27;20026;-53
2023/09/08 04:15:22;;;;;;;;;;;;;;;14.22;82.61;98230.13;10498034;27;20059;-53
2023/09/08 04:20:21;;;;;;;16.58;10.52;;;;;;;14.32;82.29;98220.47;10495277;28;19915;-53
2023/09/08 04:25:20;;;;;;;;;;;;;;;14.37;82.45;98224.75;10496714;27;20572;-53
2023/09/08 04:30:19;;;;;;;17.92;11.43;;;;;;;14.48;82.59;98232.50;10494612;28;20438;-53
2023/09/08 04:35:18;;;;;;;23.90;12.25;;;;;;;14.52;82.45;98236.84;10497283;27;20563;-52
2023/09/08 06:00:05;;;;;;;16.20;11.13;;;;;;;15.51;84.91;98244.50;10515000;27;20480;-61
2023/09/08 06:19:42;;;;;;;19.03;9.50;;;;;;;16.92;76.14;98226.56;10490305;27;20659;-54
2023/09/08 06:24:42;;;;;;;18.45;9.50;;;;;;;17.25;74.01;98239.94;10493233;28;20119;-54
2023/09/08 06:29:43;;;;;;;15.68;9.32;;;;;;;17.50;72.92;98244.69;10492331;28;20063;-54
2023/09/08 06:34:43;;;;;;;13.38;8.45;;;;;;;17.58;70.97;98252.38;10492689;28;20051;-54
2023/09/08 06:39:41;;;;;;;12.90;8.60;;;;;;;17.68;70.66;98252.16;10471716;28;20515;-54
2023/09/08 06:44:40;;;;;;;13.18;8.10;;;;;;;17.87;69.93;98259.66;10492392;28;20031;-54
2023/09/08 06:49:41;;;;;;;12.95;8.38;;;;;;;18.13;68.99;98254.69;10492792;28;20020;-54
2023/09/08 06:54:40;;;;;;;14.48;8.80;;;;;;;18.29;68.82;98252.56;10484404;28;20047;-54
2023/09/08 06:59:39;;;;;;;13.00;8.60;;;;;;;18.33;67.46;98221.81;10492000;28;20055;-54
2023/09/08 07:04:38;;;;;;;13.63;8.30;;;;;;;18.89;66.36;98253.69;10490095;28;20066;-54
2023/09/08 07:09:37;;;;;;;10.85;8.15;;;;;;;19.23;64.02;98252.78;10490681;28;20028;-54
2023/09/08 07:14:37;;;;;;;12.63;8.55;;;;;;;19.36;62.51;98240.97;10491316;28;20318;-54
2023/09/08 07:19:36;;;;;;;15.25;7.90;;;;;;;19.74;62.55;98251.31;10469930;28;20075;-54
2023/09/08 07:24:35;;;;;;;12.75;7.72;;;;;;;19.89;60.42;98255.28;10462917;28;20059;-54
2023/09/08 07:29:35;;;;;;;14.90;8.15;;;;;;;20.10;59.36;98256.41;10463039;28;20111;-54
2023/09/08 07:34:34;;;;;;;13.63;7.15;;;;;;;20.43;57.93;98254.47;10462719;28;20060;-55
2023/09/08 07:39:33;;;;;;;10.43;7.15;;;;;;;20.51;55.38;98244.53;10450480;28;20031;-55
2023/09/08 07:44:31;;;;;;;11.38;6.63;;;;;;;20.80;54.14;98247.97;10458429;28;20063;-55
2023/09/08 07:49:33;;;;;;;11.65;7.18;;;;;;;20.73;53.41;98242.03;10459910;28;20103;-54
2023/09/08 07:54:33;;;;;;;11.55;6.88;;;;;;;20.69;53.08;98187.69;10452017;28;20055;-54
2023/09/08 07:59:31;;;;;;;13.05;7.30;;;;;;;21.23;52.89;98225.38;10455152;28;20552;-55
2023/09/08 08:04:30;;;;;;;9.13;6.50;;;;;;;21.41;52.58;98229.97;10460556;28;20549;-55
2023/09/08 08:09:29;;;;;;;10.95;6.93;;;;;;;21.59;51.42;98219.63;10457988;28;20566;-54
2023/09/08 08:14:28;;;;;;;9.15;6.82;;;;;;;;;;10455534;28;20028;-54
2023/09/08 08:19:27;;;;;;;9.02;6.43;;;;;;;22.22;51.31;98209.25;10458079;28;20542;-55
2023/09/08 08:24:26;;;;;;;12.60;7.10;;;;;;;22.55;50.43;98207.84;10463468;28;20459;-55
2023/09/08 08:29:25;;;;;;;10.48;6.45;;;;;;;22.74;50.70;98200.03;10488007;28;20406;-55
2023/09/08 08:34:24;;;;;;;12.60;6.70;;;;;;;22.87;48.89;98200.34;10460864;28;20083;-53
2023/09/08 08:39:23;;;;;;;11.40;5.30;;;;;;;23.01;47.55;98199.72;10460104;28;20078;-55
2023/09/08 08:44:23;;;;;;;9.10;5.78;;;;;;;22.97;47.48;98195.50;10470199;28;20023;-54
2023/09/08 08:49:23;;;;;;;10.27;5.78;;;;;;;23.09;47.75;98159.66;10445777;28;20052;-54
2023/09/08 08:54:22;;;;;;;9.55;5.70;;;;;;;23.33;47.12;98160.34;10457822;28;20066;-54
2023/09/08 08:59:22;;;;;;;9.93;5.50;;;;;;;23.48;46.95;98183.50;10455949;28;20047;-55
2023/09/08 09:04:21;;;;;;;9.88;5.72;;;;;;;23.59;46.31;98170.63;10455174;28;20063;-55
2023/09/08 09:09:20;;;;;;;9.45;5.80;;;;;;;23.72;45.44;98124.97;10441666;28;20056;-55
2023/09/08 09:14:20;;;;;;;20.67;5.63;;;;;;;23.88;45.13;98157.75;10457880;28;20471;-54
2023/09/08 09:19:25;;;;;;;11.70;5.60;;;;;;;23.99;44.41;98151.94;10457843;28;20070;-55
2023/09/08 09:24:33;;;;;;;13.45;5.63;;;;;;;24.35;44.61;98154.56;10457922;28;20510;-55
2023/09/08 09:29:32;;;;;;;9.53;5.40;;;;;;;24.83;44.63;98137.06;10457497;28;20518;-55
2023/09/08 09:34:32;;;;;;;7.90;5.32;;;;;;;24.88;42.43;98135.03;10455689;28;20298;-54
2023/09/08 09:39:31;;;;;;;9.20;5.70;;;;;;;24.88;41.44;98132.38;10452488;28;20056;-55
2023/09/08 09:44:30;;;;;;;8.07;5.40;;;;;;;24.98;41.17;98130.09;10450173;28;20114;-55
2023/09/08 09:49:31;;;;;;;6.50;5.10;;;;;;;24.93;40.74;98129.50;10456245;28;20040;-55
2023/09/08 09:54:30;;;;;;;7.80;4.63;;;;;;;25.02;39.87;98104.25;10455403;28;20055;-54
2023/09/08 09:59:30;;;;;;;7.60;4.97;;;;;;;25.04;41.37;98094.41;10454765;28;20032;-55
2023/09/08 10:04:30;;;;;;;8.68;5.20;;;;;;;25.34;39.96;98099.84;10454854;28;20048;-55
2023/09/08 10:09:29;;;;;;;7.05;5.35;;;;;;;25.10;40.41;98059.53;10451335;28;20449;-55
2023/09/08 10:14:30;;;;;;;7.53;5.15;;;;;;;25.23;40.38;98076.50;10455364;28;20375;-55
2023/09/08 10:19:30;;;;;;;9.10;5.45;;;;;;;25.67;38.46;98080.31;10455814;28;20075;-55
2023/09/08 10:24:34;;;;;;;10.05;5.55;;;;;;;25.86;39.20;98083.59;10455276;28;20506;-55
2023/09/08 10:29:32;;;;;;;11.63;6.13;;;;;;;26.38;38.48;98078.84;10455513;28;20097;-55
2023/09/08 10:34:33;;;;;;;11.60;6.35;;;;;;;26.86;36.38;98071.50;10455164;28;20032;-55
2023/09/08 10:39:39;;;;;;;9.38;7.00;;;;;;;26.39;35.31;97951.03;10456466;28;20059;-55
2023/09/08 10:44:38;;;;;;;10.13;5.35;;;;;;;26.75;35.01;98070.31;10455859;28;20068;-55
2023/09/08 10:49:38;;;;;;;7.72;5.20;;;;;;;26.61;35.82;98077.47;10456256;28;20534;-55
2023/09/08 10:54:52;;;;;;;7.22;5.15;;;;;;;26.30;36.04;98074.84;10452750;28;20067;-55
2023/09/08 11:00:00;;;;;;;7.03;5.32;;;;;;;26.62;36.05;98060.53;10463044;28;20060;-55
2023/09/08 11:04:59;;;;;;;11.00;5.60;;;;;;;27.18;35.16;98059.66;10456734;28;20066;-56
2023/09/08 11:09:59;;;;;;;11.40;5.18;;;;;;;27.62;34.38;98055.09;10450433;28;20834;-55
2023/09/08 11:15:04;;;;;;;9.20;5.18;;;;;;;27.36;33.74;98020.31;10424550;28;20060;-55
2023/09/08 11:20:08;;;;;;;6.53;4.47;;;;;;;27.81;33.10;98054.75;10458152;28;20102;-55
2023/09/08 11:25:09;;;;;;;8.70;5.20;;;;;;;27.81;33.26;98054.75;10443585;28;20051;-55
2023/09/08 11:30:08;;;;;;;6.63;4.57;;;;;;;27.71;33.53;98049.16;10459609;28;20048;-55
2023/09/08 11:35:09;;;;;;;9.82;4.70;;;;;;;27.97;33.14;98043.91;10443763;28;20052;-55
2023/09/08 11:40:13;;;;;;;12.77;4.82;;;;;;;27.98;33.18;98034.94;10456161;28;20062;-55
2023/09/08 11:45:23;;;;;;;7.13;4.50;;;;;;;28.10;32.76;98025.28;10452577;28;20055;-55
2023/09/08 11:50:23;;;;;;;12.60;5.32;;;;;;;27.98;32.71;98017.09;10451475;28;20115;-55
2023/09/08 11:55:23;;;;;;;10.65;4.95;;;;;;;28.00;33.02;98009.00;10459464;28;20051;-55
2023/09/08 12:00:23;;;;;;;6.78;4.70;;;;;;;28.16;32.84;97996.38;10458622;28;20047;-55
2023/09/08 12:05:24;;;;;;;5.70;4.75;;;;;;;28.20;31.93;98002.34;10487036;28;20058;-55
2023/09/08 12:10:24;;;;;;;37.17;9.00;;;;;;;28.20;31.84;97999.69;10458564;28;20059;-55
2023/09/08 12:15:34;;;;;;;9.00;5.22;;;;;;;28.45;32.15;97990.81;10459507;28;20079;-55
2023/09/08 12:20:33;;;;;;;9.40;5.40;;;;;;;28.48;32.29;97977.25;10458960;28;20055;-55
2023/09/08 12:25:33;;;;;;;9.05;5.20;;;;;;;28.75;32.45;97982.47;10459394;28;21245;-55
2023/09/08 12:30:32;;;;;;;6.65;4.00;;;;;;;28.73;31.18;97980.88;10459251;28;20702;-55
2023/09/08 12:35:31;;;;;;;9.32;4.55;;;;;;;28.74;31.02;97971.91;10457676;28;20047;-55
2023/09/08 12:40:34;;;;;;;4.93;4.18;;;;;;;28.53;30.30;97969.78;10459247;28;20016;-55
2023/09/08 12:45:33;;;;;;;7.90;4.45;;;;;;;28.39;31.03;97961.88;10459282;28;20055;-55
2023/09/08 12:50:32;;;;;;;6.20;4.47;;;;;;;28.38;30.95;97960.16;10459357;28;20030;-55
2023/09/08 12:55:31;;;;;;;7.18;4.60;;;;;;;28.52;31.44;97954.69;10459670;28;20059;-55
2023/09/08 13:00:30;;;;;;;7.03;5.32;;;;;;;28.50;31.49;97945.97;10458634;28;20107;-55
2023/09/08 13:05:30;;;;;;;7.25;4.40;;;;;;;27.71;31.88;97937.19;10452672;28;20032;-55
2023/09/08 13:10:29;;;;;;;7.05;4.60;;;;;;;27.96;31.99;97924.81;10451723;28;20059;-55
2023/09/08 13:15:28;;;;;;;6.25;4.80;;;;;;;28.16;31.69;97952.81;10457734;28;20077;-55
2023/09/08 13:20:27;;;;;;;10.65;6.75;;;;;;;28.01;31.35;97949.38;10457920;28;20032;-55
2023/09/08 13:25:26;;;;;;;11.25;5.47;;;;;;;27.99;32.03;97936.13;10455805;28;20611;-55
2023/09/08 13:30:27;;;;;;;6.88;4.57;;;;;;;28.08;32.23;97945.38;10457841;28;20047;-55
2023/09/08 13:35:26;;;;;;;7.47;5.10;;;;;;;28.07;32.66;97935.63;10457488;28;20430;-55
2023/09/08 13:40:25;;;;;;;7.55;4.30;;;;;;;27.78;33.16;97921.63;10456600;28;20385;-55
2023/09/08 13:45:24;;;;;;;8.65;5.15;;;;;;;27.47;33.24;97949.47;10452005;28;20032;-55
2023/09/08 13:50:23;;;;;;;6.63;4.78;;;;;;;27.25;33.47;97942.88;10454178;28;20445;-55
2023/09/08 13:55:23;;;;;;;7.68;5.50;;;;;;;27.12;33.33;97947.31;10453523;28;20060;-55
2023/09/08 14:00:22;;;;;;;8.57;6.07;;;;;;;27.01;34.30;97949.84;10454136;28;20472;-55
2023/09/08 14:05:21;;;;;;;6.38;4.35;;;;;;;27.14;34.28;97942.72;10441187;28;20368;-55
2023/09/08 14:10:20;;;;;;;10.95;4.53;;;;;;;27.21;34.06;97933.38;10447798;28;20032;-55
2023/09/08 14:15:19;;;;;;;12.68;5.18;;;;;;;27.23;34.27;97942.13;10451309;28;20132;-55
2023/09/08 14:20:18;;;;;;;10.45;4.50;;;;;;;26.98;34.22;97937.56;10432224;28;20051;-55
2023/09/08 14:25:17;;;;;;;7.32;4.93;;;;;;;26.72;34.29;97907.25;10454181;28;20067;-55
2023/09/08 14:30:16;;;;;;;9.68;4.30;;;;;;;26.88;34.66;97931.97;10460358;28;20118;-55
2023/09/08 14:35:15;;;;;;;8.40;4.97;;;;;;;26.91;34.67;97930.91;10461883;28;20031;-55
2023/09/08 14:40:15;;;;;;;10.43;5.30;;;;;;;26.90;35.45;97939.88;10461582;28;20012;-55
2023/09/08 14:45:14;;;;;;;8.52;4.63;;;;;;;26.92;34.67;97941.47;10458992;28;20478;-55
2023/09/08 14:50:13;;;;;;;6.90;4.50;;;;;;;27.07;35.02;97941.44;10460110;28;20467;-55
2023/09/08 14:55:12;;;;;;;7.65;4.90;;;;;;;26.91;34.50;97907.81;10459621;28;20454;-55
2023/09/08 15:00:12;;;;;;;8.30;4.60;;;;;;;26.93;34.70;97934.34;10456354;28;20507;-55
2023/09/08 15:05:11;;;;;;;9.35;4.65;;;;;;;26.72;34.65;97924.09;10452909;28;20060;-55
2023/09/08 15:10:10;;;;;;;12.05;5.22;;;;;;;26.60;35.25;97937.31;10449751;28;20035;-55
2023/09/08 15:15:09;;;;;;;7.20;4.95;;;;;;;26.31;34.83;97918.72;10455417;28;20539;-55
2023/09/08 15:20:09;;;;;;;7.85;5.10;;;;;;;26.21;35.11;97906.97;10456818;28;20056;-55
2023/09/08 15:25:08;;;;;;;7.80;4.50;;;;;;;26.45;34.95;97934.69;10452315;28;20059;-55
2023/09/08 15:30:08;;;;;;;8.65;4.47;;;;;;;26.42;34.62;97934.88;10445326;28;20105;-55
2023/09/08 15:35:07;;;;;;;22.85;10.93;;;;;;;26.28;34.92;97918.94;10457116;28;20047;-55
2023/09/08 15:40:13;;;;;;;8.82;4.28;;;;;;;26.21;34.83;97923.78;10453489;28;20058;-55
2023/09/08 15:45:12;;;;;;;7.47;4.72;;;;;;;26.16;36.05;97939.97;10449422;28;20486;-55
2023/09/08 15:50:11;;;;;;;9.65;5.53;;;;;;;26.15;36.46;97938.25;10441681;28;20131;-55
2023/09/08 15:55:11;;;;;;;7.13;4.63;;;;;;;25.88;37.73;97934.66;10429387;28;20123;-55
2023/09/08 16:00:11;;;;;;;9.93;5.60;;;;;;;25.58;38.45;97900.97;10437279;28;20055;-55
2023/09/08 16:05:11;;;;;;;10.18;5.53;;;;;;;25.51;39.69;97945.63;10424206;28;20059;-55
2023/09/08 16:10:10;;;;;;;10.65;6.05;;;;;;;25.36;40.62;97951.81;10432834;28;20123;-55
2023/09/08 16:15:09;;;;;;;12.75;5.68;;;;;;;25.29;41.24;97945.16;10441983;28;20048;-55
2023/09/08 16:20:09;;;;;;;9.98;5.55;;;;;;;25.05;41.62;97952.72;10447793;28;20054;-55
2023/09/08 16:25:08;;;;;;;9.43;5.50;;;;;;;24.93;42.18;97958.72;10447145;28;20593;-55
2023/09/08 16:30:07;;;;;;;8.68;5.55;;;;;;;24.82;42.34;97961.94;10447982;28;20114;-55
2023/09/08 16:35:07;;;;;;;8.60;5.45;;;;;;;24.65;43.20;97969.03;10445796;28;20517;-55
2023/09/08 16:40:07;;;;;;;9.75;6.10;;;;;;;24.53;43.33;97971.53;10443352;28;20123;-55
2023/09/08 16:45:06;;;;;;;9.63;6.18;;;;;;;24.27;43.87;97957.84;10438895;28;20225;-55
2023/09/08 16:50:06;;;;;;;17.67;11.43;;;;;;;24.23;44.05;97975.72;10442913;28;20539;-55
2023/09/08 16:55:10;;;;;;;10.35;6.47;;;;;;;24.06;44.57;97973.91;10444879;28;20139;-55
2023/09/08 17:00:10;;;;;;;12.30;6.68;;;;;;;23.91;44.97;97982.69;10445563;28;20058;-55
2023/09/08 17:05:09;;;;;;;10.80;6.82;;;;;;;23.67;46.36;97984.78;10422157;28;20123;-55
2023/09/08 17:10:08;;;;;;;10.73;6.55;;;;;;;23.46;46.33;97986.66;10434146;28;20252;-55
2023/09/08 17:15:08;;;;;;;12.10;6.97;;;;;;;23.26;47.10;98000.91;10421517;28;20072;-55
2023/09/08 17:20:07;;;;;;;13.60;7.65;;;;;;;23.01;47.58;97974.75;10435151;28;20055;-55
2023/09/08 17:25:06;;;;;;;18.00;8.40;;;;;;;23.07;48.21;98005.34;10423235;28;20550;-55
2023/09/08 17:30:06;;;;;;;14.52;8.25;;;;;;;23.02;48.39;98010.84;10417638;28;20067;-55
2023/09/08 17:35:06;;;;;;;18.33;8.40;;;;;;;22.99;49.06;98024.25;10441637;28;20067;-55
2023/09/08 17:40:06;;;;;;;18.80;11.10;;;;;;;22.94;49.95;98031.56;10422583;28;20056;-54
2023/09/08 17:45:06;;;;;;;20.20;12.55;;;;;;;22.80;50.64;98018.97;10432053;28;20509;-55
2023/09/08 17:50:05;;;;;;;22.60;11.25;;;;;;;22.75;51.37;98035.03;10422660;28;20063;-55
2023/09/08 17:55:05;;;;;;;19.10;9.73;;;;;;;22.44;51.60;97997.69;10426727;28;20067;-55
2023/09/08 18:00:04;;;;;;;14.13;8.35;;;;;;;22.49;52.11;98030.06;10424470;28;20048;-54
2023/09/08 18:05:04;;;;;;;11.95;7.15;;;;;;;22.38;52.18;98036.66;10430829;28;20056;-54
2023/09/08 18:10:05;;;;;;;14.30;7.20;;;;;;;22.21;52.62;98041.84;10444585;28;20106;-54
2023/09/08 18:15:05;;;;;;;11.57;7.25;;;;;;;22.05;53.61;98046.06;10424172;28;20395;-55
2023/09/08 18:20:04;;;;;;;13.93;7.18;;;;;;;21.81;54.53;98055.88;10430072;28;20103;-54
2023/09/08 18:25:03;;;;;;;26.58;7.40;;;;;;;21.66;54.88;98054.69;10434770;28;20111;-55
2023/09/08 18:30:04;;;;;;;13.25;6.38;;;;;;;21.33;55.13;98018.19;10424801;28;20582;-54
2023/09/08 18:35:03;;;;;;;11.38;7.28;;;;;;;21.38;55.73;98055.81;10425349;28;20056;-54
2023/09/08 18:40:03;;;;;;;18.98;9.05;;;;;;;21.02;56.61;98016.72;10423673;28;20500;-54
2023/09/08 18:45:03;;;;;;;17.23;10.02;;;;;;;21.04;57.56;98051.84;10439620;28;20056;-54
2023/09/08 18:50:02;;;;;;;16.77;10.32;;;;;;;20.76;58.54;98024.81;10426426;28;20072;-54
2023/09/08 18:55:01;;;;;;;19.55;12.85;;;;;;;20.76;59.82;98056.44;10426077;28;20039;-54
2023/09/08 19:00:00;;;;;;;21.92;11.50;;;;;;;20.61;60.26;98050.84;10426276;28;20056;-54
2023/09/08 19:04:59;;;;;;;18.50;11.25;;;;;;;20.49;60.98;98059.16;10426804;28;20060;-54
2023/09/08 19:09:58;;;;;;;17.02;10.98;;;;;;;20.26;61.34;98026.56;10413908;28;20031;-54
2023/09/08 19:14:57;;;;;;;19.30;10.52;;;;;;;20.13;62.26;98033.19;10428165;28;21613;-55
2023/09/08 19:19:56;;;;;;;18.05;10.32;;;;;;;19.91;62.77;98019.91;10449230;28;20120;-54
2023/09/08 19:24:55;;;;;;;20.75;9.98;;;;;;;19.84;63.38;98035.06;10440965;28;20032;-54
2023/09/08 19:29:54;;;;;;;16.15;10.77;;;;;;;19.91;63.86;98069.06;10447819;28;20104;-54
2023/09/08 19:34:53;;;;;;;16.38;9.48;;;;;;;19.78;64.39;98069.50;10435413;28;20052;-54
2023/09/08 19:39:52;;;;;;;16.08;8.70;;;;;;;19.67;64.39;98063.72;10429680;28;20115;-54
2023/09/08 19:44:51;;;;;;;13.00;8.15;;;;;;;19.56;65.28;98065.84;10451029;28;20107;-55
2023/09/08 19:49:50;;;;;;;14.95;8.07;;;;;;;19.48;65.36;98078.34;10436766;28;20044;-54
2023/09/08 19:54:49;;;;;;;12.70;7.88;;;;;;;19.38;66.00;98072.53;10436348;28;20415;-54
2023/09/08 19:59:48;;;;;;;12.05;8.27;;;;;;;19.31;66.75;98076.25;10426757;28;20020;-54
2023/09/08 20:04:47;;;;;;;11.52;7.47;;;;;;;19.14;66.90;98058.38;10445441;28;20073;-54
2023/09/08 20:09:46;;;;;;;10.60;7.18;;;;;;;18.96;67.53;98057.16;10437201;28;20116;-54
2023/09/08 20:14:46;;;;;;;12.48;8.25;;;;;;;18.90;68.44;98079.25;10422792;28;20077;-55
2023/09/08 20:19:45;;;;;;;11.80;7.55;;;;;;;18.78;68.32;98069.94;10437440;28;20119;-54
2023/09/08 20:24:44;;;;;;;12.40;7.30;;;;;;;18.73;68.56;98074.44;10423364;28;20266;-54
2023/09/08 20:29:43;;;;;;;10.05;7.15;;;;;;;18.75;68.72;98083.16;10421051;28;20063;-54
2023/09/08 20:34:42;;;;;;;12.23;8.02;;;;;;;18.70;69.22;98076.31;10448993;28;20119;-54
2023/09/08 20:39:41;;;;;;;12.48;7.97;;;;;;;18.64;69.30;98079.06;10440828;28;20031;-54
2023/09/08 20:44:40;;;;;;;11.95;8.07;;;;;;;18.53;69.96;98077.63;10423129;28;20047;-54
2023/09/08 20:49:39;;;;;;;11.35;8.70;;;;;;;18.49;70.73;98081.22;10437958;28;20060;-54
2023/09/08 20:54:42;;;;;;;10.68;7.55;;;;;;;18.33;70.32;98080.78;10419903;28;20118;-54
2023/09/08 20:59:41;;;;;;;13.00;7.85;;;;;;;18.34;70.80;98086.94;10437184;28;20052;-54
2023/09/08 21:04:41;;;;;;;13.30;8.57;;;;;;;17.53;71.22;97963.84;10428833;28;20119;-54
2023/09/08 21:09:39;;;;;;;17.08;9.15;;;;;;;18.13;71.62;98073.44;10439250;28;20119;-54
2023/09/08 21:14:38;;;;;;;14.27;8.90;;;;;;;18.14;71.78;98080.41;10428839;28;20131;-54
2023/09/08 21:19:37;;;;;;;14.18;8.80;;;;;;;18.08;72.34;98083.22;10435744;28;20032;-54
2023/09/08 21:24:36;;;;;;;12.30;8.57;;;;;;;18.07;72.18;98083.25;10439148;28;20032;-54
2023/09/08 21:29:35;;;;;;;12.07;7.82;;;;;;;17.97;73.11;98093.13;10411100;28;20131;-54
2023/09/08 21:34:34;;;;;;;14.23;8.38;;;;;;;17.91;73.27;98090.66;10415308;28;20058;-54
2023/09/08 21:39:33;;;;;;;10.07;7.82;;;;;;;17.85;73.74;98088.19;10439910;28;20107;-54
2023/09/08 21:44:32;;;;;;;11.15;9.00;;;;;;;17.88;73.50;98083.72;10441593;28;20052;-54
2023/09/08 21:49:31;;;;;;;11.48;8.00;;;;;;;17.90;73.51;98087.16;10423504;28;20108;-53
2023/09/08 21:54:30;;;;;;;11.63;7.38;;;;;;;17.86;73.59;98092.53;10432170;28;20074;-53
2023/09/08 21:59:29;;;;;;;10.57;6.80;;;;;;;17.82;73.37;98104.00;10440278;28;20111;-54
2023/09/08 22:04:28;;;;;;;9.40;6.55;;;;;;;17.82;73.55;98085.63;10439858;28;20033;-54
2023/09/08 22:09:27;;;;;;;11.00;6.55;;;;;;;17.77;73.48;98081.34;10438923;28;20016;-54
2023/09/08 22:14:30;;;;;;;15.93;9.80;;;;;;;17.69;74.06;98096.41;10425709;28;20123;-54
2023/09/08 22:19:29;;;;;;;10.73;8.68;;;;;;;17.35;77.31;98094.59;10420571;28;20459;-55
2023/09/08 22:24:28;;;;;;;12.75;8.75;;;;;;;17.02;77.00;98053.34;10430672;28;20067;-54
2023/09/08 22:29:27;;;;;;;13.55;9.25;;;;;;;17.22;76.68;98093.13;10420633;28;20036;-53
2023/09/08 22:34:25;;;;;;;;;;;;;;;17.15;77.49;98096.78;10433807;28;20554;-53
2023/09/08 22:39:25;;;;;;;13.73;9.83;;;;;;;17.03;77.50;98095.28;10406594;28;20365;-54
2023/09/08 22:44:24;;;;;;;12.23;10.23;;;;;;;16.98;77.56;98094.53;10435091;28;20054;-54
2023/09/08 22:49:23;;;;;;;14.10;9.90;;;;;;;16.71;77.65;98051.38;10434696;28;20024;-53
2023/09/08 22:54:22;;;;;;;;;;;;;;;16.81;78.86;98087.00;10442791;28;20111;-53
2023/09/08 22:59:21;;;;;;;15.13;10.97;;;;;;;16.72;78.71;98090.66;10429266;28;19916;-53
2023/09/08 23:04:20;;;;;;;11.38;9.90;;;;;;;16.66;78.66;98087.28;10445279;28;20028;-53
2023/09/08 23:09:19;;;;;;;;;;;;;;;16.65;78.91;98082.94;10420339;28;20045;-53
2023/09/08 23:14:18;;;;;;;15.87;9.57;;;;;;;16.65;79.09;98091.69;10415945;28;19970;-53
2023/09/08 23:19:17;;;;;;;12.65;8.98;;;;;;;16.56;79.34;98094.47;10424906;28;20071;-54
2023/09/08 23:24:16;;;;;;;10.27;8.25;;;;;;;16.50;79.58;98102.44;10442566;28;20028;-53
2023/09/08 23:29:15;;;;;;;;;;;;;;;16.45;79.91;98091.19;10422093;28;20054;-54
2023/09/08 23:34:14;;;;;;;13.38;9.50;;;;;;;16.39;79.94;98093.91;10443161;28;19912;-54
2023/09/08 23:39:13;;;;;;;;;;;;;;;16.31;80.53;98091.47;10422492;28;20089;-53
2023/09/08 23:44:12;;;;;;;13.07;8.93;;;;;;;16.28;80.69;98078.44;10452214;28;19918;-53
2023/09/08 23:49:10;;;;;;;;;;;;;;;16.21;80.97;98076.81;10443954;28;20035;-54
2023/09/08 23:54:09;;;;;;;15.50;10.27;;;;;;;16.04;80.80;98051.81;10419902;28;20505;-54
2023/09/08 23:59:09;;;;;;;15.27;9.18;;;;;;;16.19;80.38;98068.97;10443941;28;20466;-54
